createdAt,value
2019-05-15T00:00:51.847Z,79.09
2019-05-15T00:03:23.441Z,79.71
2019-05-15T00:05:54.942Z,79.70
2019-05-15T00:08:30.022Z,80.25
2019-05-15T00:11:01.626Z,80.10
2019-05-15T00:13:34.501Z,80.05
2019-05-15T00:16:08.455Z,80.14
2019-05-15T00:18:43.740Z,80.14
2019-05-15T00:21:15.248Z,80.02
2019-05-15T00:23:49.264Z,80.51
2019-05-15T00:26:20.991Z,80.52
2019-05-15T00:28:52.616Z,80.57
2019-05-15T00:31:24.309Z,80.76
2019-05-15T00:34:00.009Z,80.74
2019-05-15T00:36:32.899Z,80.47
2019-05-15T00:39:08.264Z,80.46
2019-05-15T00:41:50.344Z,80.15
2019-05-15T00:44:12.610Z,80.82
2019-05-15T00:46:45.278Z,80.10
2019-05-15T00:49:18.856Z,80.19
2019-05-15T00:51:51.219Z,80.39
2019-05-15T00:54:22.775Z,80.81
2019-05-15T00:56:54.390Z,80.86
2019-05-15T00:59:30.074Z,80.35
2019-05-15T01:02:00.200Z,80.71
2019-05-15T01:04:31.748Z,80.57
2019-05-15T01:07:03.341Z,80.08
2019-05-15T01:09:34.881Z,79.98
2019-05-15T01:12:08.890Z,79.29
2019-05-15T01:14:40.496Z,79.88
2019-05-15T01:17:13.115Z,79.63
2019-05-15T01:19:44.821Z,80.16
2019-05-15T01:22:16.376Z,79.92
2019-05-15T01:24:48.554Z,79.46
2019-05-15T01:27:20.503Z,78.58
2019-05-15T01:29:52.020Z,78.29
2019-05-15T01:32:24.552Z,78.41
2019-05-15T01:34:58.088Z,78.34
2019-05-15T01:37:29.786Z,78.29
2019-05-15T01:40:01.363Z,78.54
2019-05-15T01:42:32.886Z,78.80
2019-05-15T01:45:05.766Z,78.73
2019-05-15T01:47:39.031Z,78.76
2019-05-15T01:50:12.128Z,78.66
2019-05-15T01:52:43.729Z,78.30
2019-05-15T01:55:15.376Z,78.71
2019-05-15T01:57:48.701Z,78.93
2019-05-15T02:00:20.774Z,78.30
2019-05-15T02:02:52.384Z,78.99
2019-05-15T02:05:23.943Z,78.77
2019-05-15T02:07:55.510Z,78.61
2019-05-15T02:10:29.210Z,78.52
2019-05-15T02:13:00.339Z,78.28
2019-05-15T02:15:31.975Z,78.60
2019-05-15T02:18:03.522Z,78.62
2019-05-15T02:20:35.181Z,78.25
2019-05-15T02:23:11.413Z,78.36
2019-05-15T02:25:40.070Z,77.58
2019-05-15T02:28:13.614Z,77.33
2019-05-15T02:30:45.224Z,77.59
2019-05-15T02:33:18.852Z,77.69
2019-05-15T02:35:50.580Z,78.08
2019-05-15T02:38:23.909Z,77.89
2019-05-15T02:40:59.015Z,78.21
2019-05-15T02:43:29.847Z,78.05
2019-05-15T02:46:02.698Z,78.07
2019-05-15T02:48:34.303Z,77.48
2019-05-15T02:51:05.841Z,77.49
2019-05-15T02:53:39.678Z,77.38
2019-05-15T02:56:11.469Z,77.81
2019-05-15T02:58:43.983Z,77.82
2019-05-15T03:01:18.739Z,77.49
2019-05-15T03:03:50.074Z,78.03
2019-05-15T03:06:22.947Z,76.85
2019-05-15T03:08:55.504Z,78.16
2019-05-15T03:11:29.484Z,78.46
2019-05-15T03:14:01.635Z,77.73
2019-05-15T03:16:34.192Z,77.55
2019-05-15T03:19:05.722Z,77.69
2019-05-15T03:21:38.889Z,76.66
2019-05-15T03:24:12.125Z,78.33
2019-05-15T03:26:43.627Z,77.85
2019-05-15T03:29:16.122Z,77.25
2019-05-15T03:32:05.152Z,77.11
2019-05-15T03:34:28.431Z,78.33
2019-05-15T03:36:54.220Z,77.76
2019-05-15T03:39:25.766Z,78.49
2019-05-15T03:42:01.512Z,78.71
2019-05-15T03:44:33.081Z,77.89
2019-05-15T03:47:04.857Z,77.01
2019-05-15T03:49:39.720Z,76.37
2019-05-15T03:52:13.668Z,75.87
2019-05-15T03:54:45.224Z,76.47
2019-05-15T03:57:20.098Z,78.47
2019-05-15T03:59:50.063Z,77.79
2019-05-15T04:02:21.666Z,77.04
2019-05-15T04:04:56.988Z,76.98
2019-05-15T04:07:29.146Z,76.20
2019-05-15T04:10:00.847Z,76.62
2019-05-15T04:12:32.568Z,76.47
2019-05-15T04:15:05.392Z,75.04
2019-05-15T04:17:39.807Z,74.17
2019-05-15T04:20:10.884Z,70.03
2019-05-15T04:22:42.580Z,65.13
2019-05-15T04:25:15.279Z,61.07
2019-05-15T04:27:49.280Z,58.05
2019-05-15T04:30:22.023Z,57.08
2019-05-15T04:32:53.608Z,56.71
2019-05-15T04:35:25.150Z,56.19
2019-05-15T04:37:59.428Z,56.68
2019-05-15T04:40:30.111Z,54.75
2019-05-15T04:43:01.661Z,53.27
2019-05-15T04:45:35.110Z,52.09
2019-05-15T04:48:09.825Z,49.18
2019-05-15T04:50:40.410Z,44.34
2019-05-15T04:53:13.221Z,44.11
2019-05-15T04:55:49.081Z,40.66
2019-05-15T04:58:21.364Z,43.75
2019-05-15T05:00:54.536Z,46.36
2019-05-15T05:03:28.810Z,44.57
2019-05-15T05:05:59.559Z,46.13
2019-05-15T05:08:31.131Z,45.59
2019-05-15T05:11:02.665Z,46.42
2019-05-15T05:13:34.187Z,47.36
2019-05-15T05:16:05.746Z,47.13
2019-05-15T05:18:40.897Z,44.54
2019-05-15T05:21:10.454Z,42.64
2019-05-15T05:23:43.242Z,44.74
2019-05-15T05:26:14.804Z,45.73
2019-05-15T05:28:48.435Z,46.32
2019-05-15T05:31:20.699Z,45.97
2019-05-15T05:33:57.719Z,45.87
2019-05-15T05:36:29.201Z,42.79
2019-05-15T05:39:00.723Z,45.93
2019-05-15T05:41:32.323Z,45.31
2019-05-15T05:44:08.103Z,44.78
2019-05-15T05:46:39.904Z,41.40
2019-05-15T05:49:12.742Z,40.40
2019-05-15T05:51:47.939Z,40.54
2019-05-15T05:54:20.457Z,38.19
2019-05-15T05:56:52.035Z,35.95
2019-05-15T05:59:23.783Z,38.67
2019-05-15T06:01:58.937Z,43.28
2019-05-15T06:04:30.417Z,36.47
2019-05-15T06:07:11.124Z,35.61
2019-05-15T06:09:38.027Z,33.85
2019-05-15T06:12:10.690Z,39.39
2019-05-15T06:14:42.551Z,36.53
2019-05-15T06:17:14.191Z,36.49
2019-05-15T06:19:48.043Z,39.51
2019-05-15T06:22:20.032Z,41.29
2019-05-15T06:24:53.608Z,40.80
2019-05-15T06:27:27.935Z,36.38
2019-05-15T06:30:01.251Z,39.47
2019-05-15T06:32:33.934Z,39.50
2019-05-15T06:35:08.713Z,40.60
2019-05-15T06:37:40.422Z,37.51
2019-05-15T06:40:12.073Z,33.51
2019-05-15T06:42:43.869Z,35.68
2019-05-15T06:45:15.615Z,36.21
2019-05-15T06:47:48.254Z,33.77
2019-05-15T06:50:32.071Z,32.49
2019-05-15T06:53:10.421Z,36.32
2019-05-15T06:55:42.017Z,36.22
2019-05-15T06:58:14.672Z,37.07
2019-05-15T07:00:48.766Z,33.91
2019-05-15T07:03:25.775Z,34.93
2019-05-15T07:05:54.442Z,35.89
2019-05-15T07:08:28.665Z,36.28
2019-05-15T07:11:01.422Z,33.41
2019-05-15T07:13:51.239Z,33.88
2019-05-15T07:16:19.239Z,34.30
2019-05-15T07:18:50.981Z,33.61
2019-05-15T07:21:22.570Z,32.85
2019-05-15T07:23:58.685Z,34.23
2019-05-15T07:26:31.644Z,33.73
2019-05-15T07:29:15.214Z,33.29
2019-05-15T07:31:47.851Z,33.90
2019-05-15T07:34:21.675Z,34.22
2019-05-15T07:36:53.504Z,31.84
2019-05-15T07:39:28.697Z,32.07
2019-05-15T07:42:01.498Z,32.15
2019-05-15T07:44:38.628Z,30.69
2019-05-15T07:47:10.840Z,29.68
2019-05-15T07:49:42.543Z,29.67
2019-05-15T07:52:14.199Z,30.89
2019-05-15T07:54:45.826Z,31.39
2019-05-15T07:57:20.710Z,31.09
2019-05-15T07:59:55.114Z,32.13
2019-05-15T08:02:28.444Z,32.26
2019-05-15T08:05:00.740Z,31.95
2019-05-15T08:07:34.027Z,33.77
2019-05-15T08:10:08.732Z,33.22
2019-05-15T08:12:45.219Z,33.37
2019-05-15T08:15:18.857Z,32.28
2019-05-15T08:18:04.148Z,35.31
2019-05-15T08:20:24.562Z,35.18
2019-05-15T08:22:58.272Z,35.63
2019-05-15T08:25:35.440Z,36.00
2019-05-15T08:28:12.791Z,37.02
2019-05-15T08:30:46.025Z,38.09
2019-05-15T08:33:17.955Z,37.91
2019-05-15T08:35:52.198Z,39.23
2019-05-15T08:38:23.910Z,38.74
2019-05-15T08:40:55.446Z,38.92
2019-05-15T08:43:31.624Z,39.23
2019-05-15T08:46:04.791Z,39.31
2019-05-15T08:48:39.169Z,39.53
2019-05-15T08:51:10.763Z,40.74
2019-05-15T08:53:48.810Z,40.56
2019-05-15T08:56:19.987Z,40.53
2019-05-15T08:58:51.842Z,40.17
2019-05-15T09:01:23.409Z,39.81
2019-05-15T09:03:55.151Z,40.09
2019-05-15T09:06:29.214Z,39.64
2019-05-15T09:09:01.768Z,39.60
2019-05-15T09:11:34.319Z,38.84
2019-05-15T09:14:11.694Z,39.27
2019-05-15T09:16:43.356Z,38.87
2019-05-15T09:19:15.002Z,39.47
2019-05-15T09:21:49.071Z,39.96
2019-05-15T09:24:20.293Z,38.79
2019-05-15T09:26:51.957Z,38.79
2019-05-15T09:29:23.868Z,39.08
2019-05-15T09:31:58.863Z,38.79
2019-05-15T09:34:46.654Z,37.76
2019-05-15T09:37:08.580Z,38.02
2019-05-15T09:39:40.280Z,39.13
2019-05-15T09:42:18.003Z,39.21
2019-05-15T09:44:51.328Z,38.83
2019-05-15T09:47:24.060Z,38.98
2019-05-15T09:49:58.930Z,39.00
2019-05-15T09:52:30.392Z,37.97
2019-05-15T09:55:02.385Z,38.50
2019-05-15T09:57:49.082Z,39.70
2019-05-15T10:00:29.290Z,40.39
2019-05-15T10:03:03.524Z,40.34
2019-05-15T10:05:34.506Z,39.77
2019-05-15T10:08:08.919Z,39.77
2019-05-15T10:10:41.821Z,39.89
2019-05-15T10:13:15.142Z,40.49
2019-05-15T10:15:51.235Z,40.98
2019-05-15T10:18:23.126Z,41.18
2019-05-15T10:20:58.101Z,41.73
2019-05-15T10:23:30.002Z,41.68
2019-05-15T10:26:02.904Z,41.30
2019-05-15T10:28:38.849Z,41.70
2019-05-15T10:31:10.330Z,41.29
2019-05-15T10:33:46.037Z,41.53
2019-05-15T10:36:24.099Z,41.05
2019-05-15T10:38:56.954Z,40.56
2019-05-15T10:41:30.614Z,40.82
2019-05-15T10:44:04.698Z,40.77
2019-05-15T10:46:38.291Z,40.12
2019-05-15T10:49:11.090Z,39.69
2019-05-15T10:51:43.933Z,39.77
2019-05-15T10:54:19.241Z,39.54
2019-05-15T10:56:54.238Z,39.25
2019-05-15T10:59:28.919Z,39.08
2019-05-15T11:05:04.304Z,40.33
2019-05-15T11:07:44.777Z,40.26
2019-05-15T11:10:18.601Z,39.47
2019-05-15T11:12:52.413Z,38.87
2019-05-15T11:15:40.517Z,38.38
2019-05-15T11:18:14.394Z,39.46
2019-05-15T11:20:48.649Z,39.91
2019-05-15T11:23:22.539Z,39.35
2019-05-15T11:25:54.293Z,38.99
2019-05-15T11:28:31.705Z,38.45
2019-05-15T11:31:00.736Z,38.22
2019-05-15T11:33:32.656Z,39.09
2019-05-15T11:36:06.269Z,40.06
2019-05-15T11:38:39.258Z,39.95
2019-05-15T11:41:12.135Z,40.10
2019-05-15T11:43:52.407Z,41.01
2019-05-15T11:46:25.805Z,39.70
2019-05-15T11:49:01.510Z,40.31
2019-05-15T11:51:38.330Z,40.00
2019-05-15T11:54:13.624Z,40.80
2019-05-15T11:56:49.004Z,40.85
2019-05-15T11:59:22.492Z,40.02
2019-05-15T12:01:58.087Z,39.66
2019-05-15T12:04:34.226Z,40.17
2019-05-15T12:07:18.194Z,39.89
2019-05-15T12:09:50.685Z,40.70
2019-05-15T12:12:22.602Z,39.15
2019-05-15T12:14:55.737Z,38.78
2019-05-15T12:17:30.086Z,39.94
2019-05-15T12:20:06.581Z,38.77
2019-05-15T12:22:43.306Z,39.08
2019-05-15T12:25:18.729Z,40.47
2019-05-15T12:28:02.915Z,39.62
2019-05-15T12:30:49.234Z,39.02
2019-05-15T12:33:33.481Z,38.36
2019-05-15T12:36:10.203Z,38.54
2019-05-15T12:39:13.734Z,37.80
2019-05-15T13:00:42.593Z,37.76
2019-05-15T13:03:18.202Z,37.80
2019-05-15T13:05:54.755Z,38.84
2019-05-15T13:08:29.074Z,40.10
2019-05-15T13:11:00.032Z,39.74
2019-05-15T13:13:33.299Z,38.84
2019-05-15T13:16:05.100Z,39.40
2019-05-15T13:18:38.651Z,39.35
2019-05-15T13:21:12.873Z,38.65
2019-05-15T13:23:47.999Z,38.80
2019-05-15T13:26:23.820Z,38.75
2019-05-15T13:28:52.657Z,38.31
2019-05-15T13:31:28.402Z,37.53
2019-05-15T13:34:08.120Z,38.68
2019-05-15T13:37:09.170Z,38.18
2019-05-15T13:39:58.530Z,37.39
2019-05-15T13:42:42.057Z,37.15
2019-05-15T13:48:40.984Z,38.36
2019-05-15T13:51:12.833Z,38.28
2019-05-15T13:53:44.929Z,38.30
2019-05-15T13:56:18.208Z,38.01
2019-05-15T13:58:50.471Z,38.24
2019-05-15T14:01:28.624Z,38.31
2019-05-15T14:36:08.446Z,41.36
2019-05-15T14:40:28.563Z,42.28
2019-05-15T14:43:12.679Z,41.69
2019-05-15T14:45:49.380Z,42.30
2019-05-15T14:48:28.504Z,42.67
2019-05-15T14:51:01.114Z,42.36
2019-05-15T14:56:48.709Z,42.49
2019-05-15T14:59:21.277Z,42.73
2019-05-15T15:01:58.147Z,42.97
2019-05-15T15:04:39.245Z,43.14
2019-05-15T15:07:48.796Z,43.43
2019-05-15T15:11:17.800Z,43.51
2019-05-15T15:15:24.566Z,43.91
2019-05-15T15:17:29.721Z,43.63
2019-05-15T15:24:35.367Z,43.93
2019-05-15T15:27:13.232Z,43.88
2019-05-15T15:29:50.020Z,44.20
2019-05-15T15:32:28.389Z,44.15
2019-05-15T15:35:15.773Z,43.81
2019-05-15T15:37:51.516Z,44.07
2019-05-15T15:40:28.114Z,43.73
2019-05-15T15:43:00.315Z,42.55
2019-05-15T15:45:39.066Z,43.11
2019-05-15T15:48:21.695Z,43.01
2019-05-15T15:50:58.585Z,42.89
2019-05-15T15:53:39.061Z,42.69
2019-05-15T15:56:19.804Z,42.98
2019-05-15T15:59:21.667Z,42.19
2019-05-15T16:01:53.999Z,42.96
2019-05-15T16:04:25.638Z,42.92
2019-05-15T16:06:59.989Z,43.02
2019-05-15T16:09:31.723Z,43.33
2019-05-15T16:12:03.582Z,43.00
2019-05-15T16:14:35.362Z,42.72
2019-05-15T16:17:08.629Z,42.92
2019-05-15T16:20:03.739Z,42.95
2019-05-15T16:22:48.714Z,43.48
2019-05-15T16:25:21.224Z,44.79
2019-05-15T16:27:57.796Z,43.68
2019-05-15T16:30:31.672Z,43.50
2019-05-15T16:33:10.742Z,43.64
2019-05-15T16:35:43.080Z,44.33
2019-05-15T16:38:19.256Z,44.47
2019-05-15T16:41:05.376Z,45.17
2019-05-15T16:43:48.538Z,44.99
2019-05-15T16:46:20.352Z,46.26
2019-05-15T16:48:52.243Z,47.63
2019-05-15T16:51:24.104Z,46.86
2019-05-15T16:53:58.906Z,48.40
2019-05-15T16:56:36.383Z,48.69
2019-05-15T16:59:07.591Z,49.53
2019-05-15T17:01:41.192Z,49.59
2019-05-15T17:04:14.207Z,50.19
2019-05-15T17:06:49.406Z,50.96
2019-05-15T17:09:22.444Z,50.79
2019-05-15T17:11:55.269Z,50.78
2019-05-15T17:14:28.792Z,51.65
2019-05-15T17:17:00.714Z,52.13
2019-05-15T17:19:32.847Z,52.07
2019-05-15T17:22:09.250Z,52.99
2019-05-15T17:24:39.951Z,52.00
2019-05-15T17:27:12.461Z,53.17
2019-05-15T17:29:44.190Z,53.72
2019-05-15T17:32:18.417Z,53.70
2019-05-15T17:34:51.342Z,54.10
2019-05-15T17:37:24.661Z,55.21
2019-05-15T17:39:58.914Z,54.96
2019-05-15T17:42:31.150Z,55.14
2019-05-15T17:45:04.278Z,55.42
2019-05-15T17:47:38.841Z,55.14
2019-05-15T17:50:13.123Z,55.12
2019-05-15T17:52:45.149Z,55.33
2019-05-15T17:55:20.237Z,56.60
2019-05-15T17:57:56.657Z,56.12
2019-05-15T18:00:28.663Z,56.41
2019-05-15T18:03:00.419Z,56.48
2019-05-15T18:05:32.047Z,57.41
2019-05-15T18:08:04.106Z,57.69
2019-05-15T18:10:35.982Z,57.77
2019-05-15T18:13:09.292Z,58.21
2019-05-15T18:15:42.128Z,58.73
2019-05-15T18:18:14.178Z,58.56
2019-05-15T18:20:51.350Z,59.12
2019-05-15T18:23:23.796Z,59.61
2019-05-15T18:25:58.208Z,59.55
2019-05-15T18:28:29.129Z,59.88
2019-05-15T18:31:01.024Z,60.81
2019-05-15T18:33:32.605Z,60.74
2019-05-15T18:36:04.175Z,60.90
2019-05-15T18:38:38.789Z,61.00
2019-05-15T18:41:09.940Z,60.87
2019-05-15T18:43:41.521Z,61.03
2019-05-15T18:46:13.059Z,61.08
2019-05-15T18:48:44.747Z,61.38
2019-05-15T18:51:16.372Z,61.89
2019-05-15T18:53:48.256Z,62.34
2019-05-15T18:56:19.891Z,62.48
2019-05-15T18:58:51.489Z,62.72
2019-05-15T19:01:23.082Z,63.01
2019-05-15T19:04:01.282Z,63.13
2019-05-15T19:06:32.943Z,62.97
2019-05-15T19:09:08.159Z,63.20
2019-05-15T19:11:39.985Z,63.37
2019-05-15T19:14:12.591Z,63.55
2019-05-15T19:16:44.238Z,63.90
2019-05-15T19:19:15.922Z,64.34
2019-05-15T19:21:53.096Z,65.00
2019-05-15T19:24:24.732Z,64.75
2019-05-15T19:26:58.508Z,65.04
2019-05-15T19:29:29.652Z,65.01
2019-05-15T19:32:01.208Z,65.17
2019-05-15T19:34:32.813Z,64.80
2019-05-15T19:37:04.502Z,65.33
2019-05-15T19:39:38.485Z,65.45
2019-05-15T19:42:09.463Z,65.56
2019-05-15T19:44:41.257Z,65.38
2019-05-15T19:47:12.827Z,65.66
2019-05-15T19:49:44.389Z,65.89
2019-05-15T19:52:23.036Z,66.40
2019-05-15T19:54:54.621Z,66.32
2019-05-15T19:57:28.018Z,66.26
2019-05-15T19:59:59.813Z,66.57
2019-05-15T20:02:31.367Z,66.98
2019-05-15T20:05:05.071Z,67.14
2019-05-15T20:07:38.988Z,67.43
2019-05-15T20:10:11.667Z,67.20
2019-05-15T20:12:43.618Z,67.29
2019-05-15T20:15:15.581Z,67.71
2019-05-15T20:17:48.202Z,67.66
2019-05-15T20:20:19.938Z,67.85
2019-05-15T20:22:51.802Z,68.23
2019-05-15T20:25:23.473Z,68.10
2019-05-15T20:27:54.949Z,68.35
2019-05-15T20:30:28.566Z,68.12
2019-05-15T20:33:00.166Z,68.31
2019-05-15T20:35:33.894Z,68.51
2019-05-15T20:38:09.060Z,68.59
2019-05-15T20:40:40.622Z,68.86
2019-05-15T20:43:15.877Z,69.66
2019-05-15T20:45:48.385Z,69.12
2019-05-15T20:48:25.189Z,69.27
2019-05-15T20:50:58.918Z,69.29
2019-05-15T20:53:34.457Z,69.48
2019-05-15T20:56:08.192Z,69.90
2019-05-15T20:58:39.350Z,70.23
2019-05-15T21:01:10.936Z,70.19
2019-05-15T21:03:42.473Z,70.09
2019-05-15T21:06:14.056Z,70.24
2019-05-15T21:08:48.584Z,70.16
2019-05-15T21:11:23.251Z,70.58
2019-05-15T21:13:54.821Z,70.32
2019-05-15T21:16:27.982Z,70.56
2019-05-15T21:19:00.303Z,70.40
2019-05-15T21:21:34.128Z,70.40
2019-05-15T21:24:05.693Z,70.67
2019-05-15T21:26:38.234Z,70.87
2019-05-15T21:29:09.857Z,70.84
2019-05-15T21:31:49.030Z,70.73
2019-05-15T21:34:36.688Z,70.55
2019-05-15T21:36:54.355Z,71.10
2019-05-15T21:39:29.879Z,70.91
2019-05-15T21:42:03.047Z,70.84
2019-05-15T21:44:34.692Z,71.17
2019-05-15T21:47:08.088Z,71.24
2019-05-15T21:49:42.573Z,71.51
2019-05-15T21:52:18.535Z,71.77
2019-05-15T21:54:50.970Z,72.18
2019-05-15T21:57:35.686Z,72.08
2019-05-15T22:00:00.747Z,71.87
2019-05-15T22:02:34.556Z,71.79
2019-05-15T22:05:08.644Z,71.79
2019-05-15T22:07:40.370Z,72.06
2019-05-15T22:10:20.050Z,71.40
2019-05-15T22:12:53.335Z,71.77
2019-05-15T22:15:24.996Z,71.95
2019-05-15T22:17:56.688Z,71.79
2019-05-15T22:20:30.505Z,72.39
2019-05-15T22:23:01.665Z,72.46
2019-05-15T22:25:33.236Z,72.72
2019-05-15T22:28:05.193Z,72.55
2019-05-15T22:30:38.964Z,72.96
2019-05-15T22:33:10.923Z,73.11
2019-05-15T22:35:44.043Z,73.21
2019-05-15T22:38:17.955Z,73.36
2019-05-15T22:40:48.909Z,73.51
2019-05-15T22:43:23.852Z,72.95
2019-05-15T22:45:55.395Z,72.14
2019-05-15T22:48:28.681Z,72.91
2019-05-15T22:51:00.484Z,73.09
2019-05-15T22:53:32.288Z,74.30
2019-05-15T22:56:03.909Z,73.75
2019-05-15T22:58:38.655Z,73.51
2019-05-15T23:01:10.505Z,73.64
2019-05-15T23:03:42.170Z,73.44
2019-05-15T23:06:13.768Z,73.22
2019-05-15T23:08:45.377Z,70.44
2019-05-15T23:11:18.224Z,69.77
2019-05-15T23:13:51.222Z,72.33
2019-05-15T23:16:28.253Z,72.91
2019-05-15T23:18:59.599Z,72.99
2019-05-15T23:21:31.156Z,74.10
2019-05-15T23:24:02.737Z,69.59
2019-05-15T23:26:34.262Z,73.24
2019-05-15T23:29:08.065Z,69.73
2019-05-15T23:31:45.819Z,66.67
2019-05-15T23:34:18.696Z,66.51
2019-05-15T23:36:50.466Z,64.97
2019-05-15T23:39:23.026Z,65.47
2019-05-15T23:41:58.459Z,68.54
2019-05-15T23:44:31.121Z,69.36
2019-05-15T23:47:02.695Z,69.21
2019-05-15T23:49:34.248Z,67.89
2019-05-15T23:52:05.897Z,68.73
2019-05-15T23:54:38.534Z,66.76
2019-05-15T23:57:10.287Z,66.27
2019-05-15T23:59:47.633Z,66.44
